createdAt,value
2018-11-23T00:01:37.378Z,3.39
2018-11-23T00:04:05.705Z,3.52
2018-11-23T00:06:34.138Z,3.54
2018-11-23T00:09:02.629Z,3.23
2018-11-23T00:11:30.995Z,3.45
2018-11-23T00:13:59.452Z,3.38
2018-11-23T00:16:27.802Z,3.49
2018-11-23T00:18:56.129Z,3.91
2018-11-23T00:21:24.536Z,3.51
2018-11-23T00:23:52.879Z,3.61
2018-11-23T00:26:21.209Z,3.37
2018-11-23T00:28:49.769Z,3.20
2018-11-23T00:31:18.131Z,3.15
2018-11-23T00:33:46.508Z,3.32
2018-11-23T00:36:14.946Z,3.43
2018-11-23T00:38:43.404Z,3.60
2018-11-23T00:41:11.768Z,3.53
2018-11-23T00:43:41.074Z,3.08
2018-11-23T00:46:09.577Z,3.04
2018-11-23T00:48:37.908Z,3.52
2018-11-23T00:51:06.309Z,3.27
2018-11-23T00:53:34.635Z,3.47
2018-11-23T00:56:03.077Z,3.60
2018-11-23T00:58:31.410Z,3.40
2018-11-23T01:00:59.743Z,2.89
2018-11-23T01:03:28.092Z,3.33
2018-11-23T01:05:56.465Z,3.74
2018-11-23T01:08:24.865Z,3.62
2018-11-23T01:10:53.676Z,3.41
2018-11-23T01:13:22.170Z,2.99
2018-11-23T01:15:50.519Z,3.06
2018-11-23T01:18:18.979Z,2.49
2018-11-23T01:20:47.397Z,2.76
2018-11-23T01:23:15.808Z,2.64
2018-11-23T01:25:44.241Z,3.34
2018-11-23T01:28:12.648Z,3.31
2018-11-23T01:30:41.091Z,2.77
2018-11-23T01:33:09.490Z,2.82
2018-11-23T01:35:37.906Z,3.10
2018-11-23T01:38:06.239Z,3.08
2018-11-23T01:40:34.596Z,3.27
2018-11-23T01:43:02.959Z,3.15
2018-11-23T01:45:31.274Z,2.98
2018-11-23T01:47:59.610Z,2.88
2018-11-23T01:50:29.134Z,2.77
2018-11-23T01:52:57.712Z,3.10
2018-11-23T01:55:26.612Z,3.29
2018-11-23T01:57:55.026Z,3.28
2018-11-23T02:00:24.638Z,3.00
2018-11-23T02:02:54.068Z,2.05
2018-11-23T02:05:22.526Z,2.81
2018-11-23T02:07:50.885Z,2.40
2018-11-23T02:10:19.540Z,3.00
2018-11-23T02:12:47.920Z,2.46
2018-11-23T02:15:18.417Z,3.04
2018-11-23T02:17:47.199Z,2.43
2018-11-23T02:20:16.891Z,2.83
2018-11-23T02:22:45.176Z,2.32
2018-11-23T02:25:13.643Z,2.22
2018-11-23T02:27:42.022Z,2.03
2018-11-23T02:30:13.143Z,2.35
2018-11-23T02:32:41.804Z,2.61
2018-11-23T02:35:10.194Z,2.85
2018-11-23T02:37:38.533Z,3.00
2018-11-23T02:40:07.600Z,3.06
2018-11-23T02:42:35.965Z,2.72
2018-11-23T02:45:04.353Z,2.77
2018-11-23T02:47:32.734Z,2.76
2018-11-23T02:50:01.088Z,2.14
2018-11-23T02:52:29.497Z,1.99
2018-11-23T02:54:57.826Z,2.42
2018-11-23T02:57:26.213Z,2.29
2018-11-23T02:59:54.657Z,2.08
2018-11-23T03:02:23.094Z,1.74
2018-11-23T03:04:51.493Z,1.78
2018-11-23T03:07:20.011Z,2.02
2018-11-23T03:09:48.359Z,2.20
2018-11-23T03:12:16.713Z,2.34
2018-11-23T03:14:45.115Z,2.16
2018-11-23T03:17:13.495Z,2.01
2018-11-23T03:19:41.860Z,2.31
2018-11-23T03:22:10.161Z,2.75
2018-11-23T03:24:38.546Z,2.59
2018-11-23T03:27:06.870Z,2.89
2018-11-23T03:29:35.344Z,2.55
2018-11-23T03:32:03.822Z,2.67
2018-11-23T03:34:32.274Z,2.97
2018-11-23T03:37:00.713Z,2.27
2018-11-23T03:39:34.015Z,2.89
2018-11-23T03:41:57.697Z,2.76
2018-11-23T03:44:26.060Z,2.94
2018-11-23T03:46:54.445Z,3.02
2018-11-23T03:49:22.793Z,2.99
2018-11-23T03:51:51.167Z,2.94
2018-11-23T03:54:19.509Z,2.73
2018-11-23T03:56:47.913Z,2.06
2018-11-23T03:59:16.196Z,2.52
2018-11-23T04:01:44.558Z,2.22
2018-11-23T04:04:12.897Z,2.67
2018-11-23T04:06:41.176Z,2.76
2018-11-23T04:09:09.695Z,2.44
2018-11-23T04:11:38.201Z,2.16
2018-11-23T04:14:06.549Z,2.02
2018-11-23T04:16:35.013Z,2.38
2018-11-23T04:19:03.383Z,2.54
2018-11-23T04:21:31.693Z,2.18
2018-11-23T04:24:00.018Z,1.99
2018-11-23T04:26:28.357Z,2.84
2018-11-23T04:28:56.701Z,2.87
2018-11-23T04:31:25.045Z,2.58
2018-11-23T04:33:53.357Z,2.16
2018-11-23T04:36:21.666Z,2.19
2018-11-23T04:38:49.952Z,2.31
2018-11-23T04:41:18.309Z,2.37
2018-11-23T04:43:46.650Z,2.28
2018-11-23T04:46:14.974Z,2.63
2018-11-23T04:48:43.303Z,2.91
2018-11-23T04:51:11.692Z,2.29
2018-11-23T04:53:40.045Z,2.36
2018-11-23T04:56:08.460Z,2.80
2018-11-23T04:58:37.034Z,3.04
2018-11-23T05:01:05.515Z,2.22
2018-11-23T05:03:33.887Z,2.26
2018-11-23T05:06:02.270Z,2.24
2018-11-23T05:08:30.588Z,2.36
2018-11-23T05:10:59.001Z,2.31
2018-11-23T05:13:27.418Z,1.98
2018-11-23T05:15:55.808Z,1.98
2018-11-23T05:18:24.213Z,2.02
2018-11-23T05:20:52.562Z,2.00
2018-11-23T05:23:20.951Z,2.27
2018-11-23T05:25:49.313Z,2.35
2018-11-23T05:28:17.706Z,2.63
2018-11-23T05:30:46.030Z,2.46
2018-11-23T05:33:14.389Z,2.39
2018-11-23T05:35:42.714Z,2.43
2018-11-23T05:38:11.116Z,2.01
2018-11-23T05:40:39.768Z,2.24
2018-11-23T05:43:08.236Z,2.31
2018-11-23T05:45:36.660Z,2.14
2018-11-23T05:48:05.244Z,2.29
2018-11-23T05:50:33.663Z,2.64
2018-11-23T05:53:01.977Z,2.55
2018-11-23T05:55:30.307Z,2.31
2018-11-23T05:57:58.636Z,2.15
2018-11-23T06:00:28.520Z,2.58
2018-11-23T06:02:56.963Z,2.94
2018-11-23T06:05:25.377Z,2.35
2018-11-23T06:07:53.828Z,2.73
2018-11-23T06:10:22.640Z,2.66
2018-11-23T06:12:51.049Z,2.83
2018-11-23T06:15:21.568Z,2.98
2018-11-23T06:17:50.159Z,2.69
2018-11-23T06:20:20.517Z,2.58
2018-11-23T06:22:49.735Z,2.38
2018-11-23T06:25:23.217Z,2.85
2018-11-23T06:27:51.704Z,2.92
2018-11-23T06:30:20.118Z,3.01
2018-11-23T06:32:59.742Z,3.13
2018-11-23T06:35:28.105Z,2.92
2018-11-23T06:37:56.501Z,2.71
2018-11-23T06:40:24.900Z,2.84
2018-11-23T06:42:53.223Z,3.08
2018-11-23T06:45:21.760Z,3.23
2018-11-23T06:47:50.290Z,3.18
2018-11-23T06:50:18.682Z,3.17
2018-11-23T06:52:47.105Z,3.44
2018-11-23T06:55:15.533Z,3.25
2018-11-23T06:57:43.924Z,3.33
2018-11-23T07:00:15.534Z,3.01
2018-11-23T07:02:44.896Z,3.26
2018-11-23T07:05:13.660Z,3.15
2018-11-23T07:07:42.041Z,2.95
2018-11-23T07:10:11.068Z,3.24
2018-11-23T07:12:40.033Z,3.27
2018-11-23T07:15:09.864Z,3.32
2018-11-23T07:17:38.672Z,3.39
2018-11-23T07:20:08.916Z,3.13
2018-11-23T07:22:37.547Z,3.21
2018-11-23T07:25:06.652Z,3.21
2018-11-23T07:27:35.016Z,3.24
2018-11-23T07:30:03.549Z,3.51
2018-11-23T07:32:31.901Z,3.34
2018-11-23T07:35:00.253Z,2.98
2018-11-23T07:37:28.656Z,3.22
2018-11-23T07:40:08.240Z,3.01
2018-11-23T07:42:37.492Z,3.15
2018-11-23T07:45:06.165Z,3.19
2018-11-23T07:47:34.488Z,3.15
2018-11-23T07:50:02.856Z,2.85
2018-11-23T07:52:31.190Z,2.98
2018-11-23T07:54:59.592Z,3.14
2018-11-23T07:57:27.925Z,3.05
2018-11-23T07:59:56.408Z,3.25
2018-11-23T08:02:24.758Z,3.24
2018-11-23T08:04:53.309Z,3.23
2018-11-23T08:07:22.257Z,3.59
2018-11-23T08:09:50.688Z,3.36
2018-11-23T08:12:19.072Z,3.58
2018-11-23T08:14:47.476Z,3.58
2018-11-23T08:17:15.880Z,3.51
2018-11-23T08:19:47.389Z,3.80
2018-11-23T08:22:12.766Z,4.24
2018-11-23T08:24:41.081Z,4.14
2018-11-23T08:27:09.401Z,4.30
2018-11-23T08:29:37.773Z,4.64
2018-11-23T08:32:06.114Z,4.54
2018-11-23T08:34:34.411Z,4.79
2018-11-23T08:37:02.796Z,4.72
2018-11-23T08:39:31.105Z,4.84
2018-11-23T08:41:59.532Z,5.08
2018-11-23T08:44:27.925Z,5.64
2018-11-23T08:46:56.297Z,5.54
2018-11-23T08:49:24.872Z,5.58
2018-11-23T08:51:53.284Z,5.54
2018-11-23T08:54:21.584Z,5.72
2018-11-23T08:56:49.932Z,5.87
2018-11-23T08:59:18.410Z,5.68
2018-11-23T09:01:46.821Z,5.78
2018-11-23T09:04:15.117Z,5.82
2018-11-23T09:06:43.470Z,5.52
2018-11-23T09:09:12.262Z,5.49
2018-11-23T09:11:40.649Z,5.51
2018-11-23T09:14:09.976Z,5.34
2018-11-23T09:16:38.341Z,5.78
2018-11-23T09:19:06.780Z,5.90
2018-11-23T09:21:35.201Z,6.08
2018-11-23T09:24:03.537Z,5.87
2018-11-23T09:26:33.817Z,6.00
2018-11-23T09:29:10.533Z,6.58
2018-11-23T09:31:38.961Z,6.99
2018-11-23T09:34:07.364Z,7.16
2018-11-23T09:36:35.688Z,7.11
2018-11-23T09:39:05.281Z,7.48
2018-11-23T09:41:33.677Z,7.22
2018-11-23T09:44:02.002Z,7.50
2018-11-23T09:46:30.424Z,7.60
2018-11-23T09:48:58.809Z,7.79
2018-11-23T09:51:27.126Z,7.87
2018-11-23T09:53:55.826Z,7.90
2018-11-23T09:56:24.155Z,7.86
2018-11-23T09:58:52.516Z,7.31
2018-11-23T10:01:20.854Z,7.68
2018-11-23T10:03:49.268Z,7.67
2018-11-23T10:06:17.621Z,7.45
2018-11-23T10:08:46.002Z,7.55
2018-11-23T10:11:14.342Z,7.27
2018-11-23T10:13:42.761Z,6.96
2018-11-23T10:16:11.110Z,6.62
2018-11-23T10:18:39.446Z,7.03
2018-11-23T10:21:07.916Z,7.44
2018-11-23T10:23:36.271Z,7.53
2018-11-23T10:26:04.742Z,7.05
2018-11-23T10:28:33.325Z,7.32
2018-11-23T10:31:01.709Z,6.92
2018-11-23T10:33:30.069Z,7.33
2018-11-23T10:35:58.533Z,6.92
2018-11-23T10:38:26.920Z,7.07
2018-11-23T10:40:55.937Z,7.34
2018-11-23T10:43:24.222Z,7.36
2018-11-23T10:45:52.598Z,7.00
2018-11-23T10:48:20.912Z,7.14
2018-11-23T10:50:49.273Z,7.40
2018-11-23T10:53:17.643Z,7.38
2018-11-23T10:55:46.018Z,7.35
2018-11-23T10:58:14.302Z,7.22
2018-11-23T11:00:47.824Z,7.36
2018-11-23T11:03:33.496Z,7.43
2018-11-23T11:06:10.436Z,7.69
2018-11-23T11:08:39.224Z,7.41
2018-11-23T11:11:08.178Z,7.65
2018-11-23T11:13:36.336Z,7.43
2018-11-23T11:16:04.748Z,7.87
2018-11-23T11:18:33.051Z,7.68
2018-11-23T11:21:01.360Z,7.61
2018-11-23T11:23:29.744Z,8.08
2018-11-23T11:25:58.118Z,7.71
2018-11-23T11:28:26.507Z,8.59
2018-11-23T11:30:54.865Z,9.62
2018-11-23T11:33:23.289Z,9.25
2018-11-23T11:35:51.652Z,9.94
2018-11-23T11:38:20.013Z,10.61
2018-11-23T11:40:48.396Z,11.60
2018-11-23T11:43:16.837Z,11.03
2018-11-23T11:45:45.260Z,10.50
2018-11-23T11:48:13.652Z,11.21
2018-11-23T11:50:42.205Z,12.28
2018-11-23T11:53:10.581Z,13.46
2018-11-23T11:55:38.985Z,13.66
2018-11-23T11:58:07.264Z,13.57
2018-11-23T12:00:35.780Z,14.19
2018-11-23T12:03:04.127Z,14.24
2018-11-23T12:05:32.547Z,14.05
2018-11-23T12:08:00.931Z,14.69
2018-11-23T12:10:29.290Z,15.00
2018-11-23T12:12:57.707Z,14.67
2018-11-23T12:15:38.196Z,15.75
2018-11-23T12:18:18.446Z,15.86
2018-11-23T12:20:47.208Z,16.11
2018-11-23T12:23:16.730Z,15.99
2018-11-23T12:25:45.289Z,16.38
2018-11-23T12:28:13.608Z,15.79
2018-11-23T12:30:41.962Z,15.61
2018-11-23T12:33:10.330Z,16.65
2018-11-23T12:35:38.684Z,17.30
2018-11-23T12:38:07.072Z,17.03
2018-11-23T12:40:35.472Z,16.92
2018-11-23T12:43:03.891Z,16.04
2018-11-23T12:45:32.414Z,17.75
2018-11-23T12:48:00.960Z,17.82
2018-11-23T12:50:29.395Z,17.65
2018-11-23T12:53:01.559Z,16.49
2018-11-23T12:55:26.489Z,16.89
2018-11-23T12:57:55.049Z,16.92
2018-11-23T13:00:27.625Z,16.71
2018-11-23T13:02:58.528Z,16.74
2018-11-23T13:05:27.825Z,17.53
2018-11-23T13:07:57.187Z,17.82
2018-11-23T13:10:26.163Z,18.23
2018-11-23T13:12:55.380Z,16.66
2018-11-23T13:15:23.800Z,17.47
2018-11-23T13:17:52.211Z,17.20
2018-11-23T13:20:20.700Z,17.70
2018-11-23T13:22:49.087Z,18.07
2018-11-23T13:25:19.806Z,17.59
2018-11-23T13:27:51.722Z,17.52
2018-11-23T13:30:22.877Z,15.94
2018-11-23T13:32:51.393Z,15.41
2018-11-23T13:35:20.215Z,14.84
2018-11-23T13:37:48.561Z,14.26
2018-11-23T13:40:18.336Z,13.73
2018-11-23T13:42:47.135Z,12.57
2018-11-23T13:45:16.944Z,12.79
2018-11-23T13:47:45.315Z,11.56
2018-11-23T13:50:15.079Z,12.05
2018-11-23T13:52:44.533Z,11.02
2018-11-23T13:55:12.889Z,10.74
2018-11-23T13:57:41.389Z,10.82
2018-11-23T14:00:13.603Z,10.72
2018-11-23T14:02:42.178Z,10.63
2018-11-23T14:05:12.694Z,10.57
2018-11-23T14:07:41.473Z,10.43
2018-11-23T14:10:11.923Z,9.57
2018-11-23T14:12:40.544Z,9.19
2018-11-23T14:15:11.843Z,9.12
2018-11-23T14:17:40.450Z,9.12
2018-11-23T14:20:10.628Z,8.93
2018-11-23T14:22:39.055Z,8.57
2018-11-23T14:25:08.815Z,8.43
2018-11-23T14:27:37.388Z,8.64
2018-11-23T14:30:08.616Z,7.93
2018-11-23T14:32:37.154Z,8.47
2018-11-23T14:35:05.965Z,8.66
2018-11-23T14:37:34.377Z,8.65
2018-11-23T14:40:02.768Z,8.81
2018-11-23T14:42:31.179Z,8.72
2018-11-23T14:44:59.557Z,8.30
2018-11-23T14:47:28.011Z,8.32
2018-11-23T14:49:56.422Z,8.19
2018-11-23T14:52:24.827Z,8.22
2018-11-23T14:54:53.262Z,8.06
2018-11-23T14:57:21.765Z,7.66
2018-11-23T14:59:50.188Z,8.11
2018-11-23T15:02:18.539Z,8.08
2018-11-23T15:04:46.989Z,7.70
2018-11-23T15:07:15.398Z,7.71
2018-11-23T15:09:44.015Z,7.68
2018-11-23T15:12:12.325Z,7.48
2018-11-23T15:14:40.773Z,7.33
2018-11-23T15:17:09.092Z,7.66
2018-11-23T15:19:37.541Z,7.60
2018-11-23T15:22:06.015Z,7.68
2018-11-23T15:24:34.355Z,7.47
2018-11-23T15:27:03.148Z,7.39
2018-11-23T15:29:31.713Z,7.20
2018-11-23T15:32:00.086Z,6.99
2018-11-23T15:34:28.560Z,7.12
2018-11-23T15:36:56.906Z,7.02
2018-11-23T15:39:25.333Z,6.95
2018-11-23T15:41:53.680Z,6.94
2018-11-23T15:44:22.091Z,6.66
2018-11-23T15:46:50.580Z,6.23
2018-11-23T15:49:19.112Z,6.74
2018-11-23T15:51:47.503Z,6.89
2018-11-23T15:54:15.901Z,5.89
2018-11-23T15:56:44.652Z,6.24
2018-11-23T15:59:13.488Z,6.85
2018-11-23T16:01:41.883Z,6.63
2018-11-23T16:04:10.312Z,6.76
2018-11-23T16:06:38.751Z,6.66
2018-11-23T16:09:10.585Z,6.92
2018-11-23T16:11:39.104Z,6.33
2018-11-23T16:14:07.624Z,6.61
2018-11-23T16:16:36.214Z,6.38
2018-11-23T16:19:04.978Z,6.71
2018-11-23T16:21:33.293Z,6.71
2018-11-23T16:24:01.772Z,6.81
2018-11-23T16:26:30.315Z,6.08
2018-11-23T16:28:58.675Z,5.94
2018-11-23T16:31:27.017Z,6.44
2018-11-23T16:33:55.345Z,6.58
2018-11-23T16:36:23.723Z,6.29
2018-11-23T16:38:58.212Z,6.78
2018-11-23T16:41:33.678Z,6.96
2018-11-23T16:44:02.107Z,6.69
2018-11-23T16:46:30.505Z,6.70
2018-11-23T16:48:58.935Z,6.64
2018-11-23T16:51:27.340Z,6.64
2018-11-23T16:53:55.726Z,6.51
2018-11-23T16:56:24.145Z,6.25
2018-11-23T16:58:52.510Z,6.24
2018-11-23T17:01:20.924Z,6.48
2018-11-23T17:03:49.369Z,6.46
2018-11-23T17:06:17.844Z,6.41
2018-11-23T17:08:46.271Z,6.55
2018-11-23T17:11:14.672Z,6.71
2018-11-23T17:13:43.024Z,6.53
2018-11-23T17:16:12.212Z,6.21
2018-11-23T17:18:40.699Z,6.18
2018-11-23T17:21:09.161Z,6.54
2018-11-23T17:23:37.588Z,6.31
2018-11-23T17:26:06.005Z,6.26
2018-11-23T17:28:34.384Z,6.59
2018-11-23T17:31:02.697Z,6.32
2018-11-23T17:33:31.227Z,6.38
2018-11-23T17:35:59.583Z,5.81
2018-11-23T17:38:28.102Z,6.10
2018-11-23T17:40:56.889Z,6.39
2018-11-23T17:43:25.306Z,6.36
2018-11-23T17:45:53.797Z,6.53
2018-11-23T17:48:22.321Z,6.35
2018-11-23T17:50:50.750Z,6.11
2018-11-23T17:53:19.153Z,5.87
2018-11-23T17:55:47.502Z,6.27
2018-11-23T17:58:16.069Z,6.29
2018-11-23T18:00:44.435Z,6.70
2018-11-23T18:03:12.850Z,6.51
2018-11-23T18:05:42.250Z,6.01
2018-11-23T18:08:10.705Z,6.76
2018-11-23T18:10:45.551Z,6.88
2018-11-23T18:13:14.062Z,6.76
2018-11-23T18:15:42.491Z,6.47
2018-11-23T18:18:10.848Z,6.68
2018-11-23T18:20:39.188Z,6.62
2018-11-23T18:23:07.586Z,6.61
2018-11-23T18:25:38.645Z,6.74
2018-11-23T18:28:07.164Z,6.58
2018-11-23T18:30:35.700Z,6.66
2018-11-23T18:33:05.579Z,6.74
2018-11-23T18:35:34.175Z,6.33
2018-11-23T18:38:02.665Z,6.64
2018-11-23T18:40:37.123Z,6.65
2018-11-23T18:42:59.554Z,6.83
2018-11-23T18:45:27.992Z,6.32
2018-11-23T18:47:56.382Z,6.59
2018-11-23T18:50:24.745Z,6.61
2018-11-23T18:52:53.140Z,6.74
2018-11-23T18:55:21.576Z,6.67
2018-11-23T18:57:50.241Z,6.51
2018-11-23T19:00:18.778Z,7.04
2018-11-23T19:02:47.826Z,7.16
2018-11-23T19:05:18.381Z,6.66
2018-11-23T19:07:47.946Z,6.76
2018-11-23T19:10:16.346Z,6.87
2018-11-23T19:12:44.790Z,6.79
2018-11-23T19:15:14.505Z,6.75
2018-11-23T19:17:44.890Z,6.75
2018-11-23T19:20:20.324Z,7.01
2018-11-23T19:22:53.225Z,6.68
2018-11-23T19:25:21.698Z,6.88
2018-11-23T19:27:50.463Z,6.84
2018-11-23T19:30:27.708Z,6.94
2018-11-23T19:32:48.453Z,6.96
2018-11-23T19:35:16.865Z,6.48
2018-11-23T19:37:45.252Z,6.93
2018-11-23T19:40:15.088Z,6.69
2018-11-23T19:42:44.167Z,6.76
2018-11-23T19:45:13.712Z,6.78
2018-11-23T19:47:42.161Z,6.76
2018-11-23T19:50:13.292Z,7.06
2018-11-23T19:52:41.792Z,7.00
2018-11-23T19:55:11.144Z,7.18
2018-11-23T19:57:39.521Z,7.12
2018-11-23T20:00:14.570Z,7.08
2018-11-23T20:02:43.076Z,7.01
2018-11-23T20:05:11.569Z,6.83
2018-11-23T20:07:40.022Z,6.92
2018-11-23T20:10:13.774Z,7.11
2018-11-23T20:12:42.286Z,7.25
2018-11-23T20:15:13.354Z,7.12
2018-11-23T20:17:41.752Z,7.12
2018-11-23T20:20:11.430Z,7.03
2018-11-23T20:22:39.889Z,7.00
2018-11-23T20:25:10.092Z,6.95
2018-11-23T20:27:38.593Z,6.95
2018-11-23T20:30:10.394Z,7.04
2018-11-23T20:32:38.916Z,6.96
2018-11-23T20:35:08.768Z,6.87
2018-11-23T20:37:37.193Z,6.97
2018-11-23T20:40:09.559Z,6.97
2018-11-23T20:42:38.023Z,6.88
2018-11-23T20:45:08.072Z,6.66
2018-11-23T20:47:36.718Z,6.62
2018-11-23T20:50:06.612Z,6.78
2018-11-23T20:52:35.292Z,7.01
2018-11-23T20:55:03.645Z,7.07
2018-11-23T20:57:32.034Z,6.79
2018-11-23T21:00:00.635Z,6.31
2018-11-23T21:02:29.101Z,6.84
2018-11-23T21:04:57.534Z,6.77
2018-11-23T21:07:26.214Z,7.00
2018-11-23T21:09:54.615Z,6.82
2018-11-23T21:12:22.984Z,6.91
2018-11-23T21:14:51.409Z,6.51
2018-11-23T21:17:19.776Z,6.71
2018-11-23T21:19:48.156Z,6.84
2018-11-23T21:22:16.716Z,6.80
2018-11-23T21:24:45.157Z,6.84
2018-11-23T21:27:13.480Z,7.00
2018-11-23T21:29:41.874Z,6.92
2018-11-23T21:32:10.296Z,6.73
2018-11-23T21:34:38.631Z,7.05
2018-11-23T21:37:07.096Z,7.05
2018-11-23T21:39:35.569Z,6.95
2018-11-23T21:42:03.956Z,6.95
2018-11-23T21:44:32.333Z,7.12
2018-11-23T21:47:00.718Z,6.73
2018-11-23T21:49:29.060Z,6.23
2018-11-23T21:51:57.415Z,6.33
2018-11-23T21:54:25.839Z,6.72
2018-11-23T21:56:54.180Z,6.71
2018-11-23T21:59:22.533Z,6.34
2018-11-23T22:01:50.842Z,6.86
2018-11-23T22:04:19.281Z,6.88
2018-11-23T22:06:47.637Z,6.64
2018-11-23T22:09:16.132Z,6.76
2018-11-23T22:11:44.515Z,7.08
2018-11-23T22:14:12.837Z,7.07
2018-11-23T22:16:41.234Z,6.97
2018-11-23T22:19:09.766Z,6.79
2018-11-23T22:21:38.106Z,6.89
2018-11-23T22:24:07.493Z,6.66
2018-11-23T22:26:35.825Z,6.83
2018-11-23T22:29:04.217Z,6.95
2018-11-23T22:31:32.734Z,6.75
2018-11-23T22:34:01.057Z,7.12
2018-11-23T22:36:29.434Z,7.15
2018-11-23T22:38:57.762Z,7.03
2018-11-23T22:41:26.179Z,6.86
2018-11-23T22:43:54.497Z,7.05
2018-11-23T22:46:22.892Z,6.95
2018-11-23T22:48:51.285Z,7.05
2018-11-23T22:51:19.610Z,7.22
2018-11-23T22:53:48.089Z,6.60
2018-11-23T22:56:16.469Z,6.91
2018-11-23T22:58:44.936Z,6.88
2018-11-23T23:01:13.277Z,7.17
2018-11-23T23:03:41.697Z,6.90
2018-11-23T23:06:10.090Z,7.04
2018-11-23T23:08:38.453Z,7.00
2018-11-23T23:11:06.865Z,7.05
2018-11-23T23:13:35.317Z,7.32
2018-11-23T23:16:03.700Z,7.02
2018-11-23T23:18:32.024Z,6.91
2018-11-23T23:21:00.417Z,6.92
2018-11-23T23:23:28.689Z,6.84
2018-11-23T23:25:56.990Z,6.96
2018-11-23T23:28:25.395Z,6.92
2018-11-23T23:30:53.764Z,6.95
2018-11-23T23:33:22.125Z,6.83
2018-11-23T23:35:50.509Z,6.65
2018-11-23T23:38:18.864Z,6.92
2018-11-23T23:40:47.302Z,6.97
2018-11-23T23:43:15.675Z,6.94
2018-11-23T23:45:44.059Z,6.96
2018-11-23T23:48:12.491Z,6.99
2018-11-23T23:50:40.834Z,7.05
2018-11-23T23:53:09.176Z,7.13
2018-11-23T23:55:37.587Z,7.05
2018-11-23T23:58:06.099Z,7.03
